Terminal Aerodrome Forecast
Issued by NWS

Home | Current Version | Previous Version | Graphics & Text | Print | Product List | Glossary On
Versions: 1 2 3 4 5 6 7 8 9 10 11 12 13
000
FTUS43 KMPX 022325
TAFAXN
TAF
KAXN 022325Z 0300/0324 32016G18KT P6SM SKC
     FM030100 31004KT P6SM SKC
     FM031400 31010G16KT P6SM SKC=

USA.gov is the U.S. government's official web portal to all federal, state and local government web resources and services.